Time;durP1;ratioP1;P1;durP2;ratioP2;P2;SDS_P1;SDS_P2;PMS_P1;PMS_P2;Temp;Humidity;BMP_temperature;BMP_pressure;BME280_temperature;BME280_humidity;BME280_pressure;Samples;Min_cycle;Max_cycle;Signal;HPM_P1;HPM_P2
2023/03/08 06:02:40;;;;;;;;;3.00;3.00;;;;;9.28;86.73;-17957.22;5021543;23;45498;-86
2023/03/08 06:05:06;;;;;;;;;3.00;2.00;;;;;9.53;86.35;-17715.38;5011966;28;45828;-86
2023/03/08 06:07:31;;;;;;;;;3.00;3.00;;;;;9.29;87.14;-16963.81;4985177;28;45394;-86
2023/03/08 06:09:57;;;;;;;;;3.00;3.00;;;;;9.86;87.09;-16240.22;5011220;28;45440;-85
2023/03/08 06:12:22;;;;;;;;;2.00;2.00;;;;;9.62;86.56;-17962.72;5008397;28;45497;-85
2023/03/08 06:14:47;;;;;;;;;0.00;0.00;;;;;9.75;87.15;-17250.50;5000452;28;45331;-85
2023/03/08 06:17:13;;;;;;;;;2.00;2.00;;;;;10.01;87.17;-16633.66;4999620;28;45343;-84
2023/03/08 06:19:38;;;;;;;;;3.00;2.00;;;;;9.70;88.01;-15275.59;5009445;28;45378;-88
2023/03/08 06:22:04;;;;;;;;;2.00;2.00;;;;;10.11;88.38;-14316.53;5000884;28;47065;-86
2023/03/08 06:24:29;;;;;;;;;1.00;1.00;;;;;9.94;88.15;-14685.81;5012628;28;45534;-85
2023/03/08 06:26:55;;;;;;;;;1.00;1.00;;;;;10.25;88.24;-14963.13;5002953;28;45705;-84
2023/03/08 06:29:21;;;;;;;;;2.00;2.00;;;;;10.24;88.16;-15397.47;5008566;28;45567;-85
2023/03/08 06:31:46;;;;;;;;;2.00;1.00;;;;;10.32;88.02;-14992.88;5012136;28;46214;-86
2023/03/08 06:34:11;;;;;;;;;1.67;1.67;;;;;9.69;88.46;-15259.88;5011359;28;45477;-87
2023/03/08 06:36:37;;;;;;;;;1.00;1.00;;;;;10.21;88.50;-14473.41;5006555;28;45747;-88
2023/03/08 06:39:02;;;;;;;;;2.33;1.67;;;;;10.35;88.58;-14271.72;5012611;28;45499;-86
2023/03/08 06:41:29;;;;;;;;;1.00;1.00;;;;;10.10;88.80;-14435.22;5000197;28;45325;-88
2023/03/08 06:43:54;;;;;;;;;1.33;1.33;;;;;10.47;88.85;-13950.31;5004775;28;46323;-85
2023/03/08 06:46:20;;;;;;;;;1.67;1.67;;;;;10.59;89.01;-13517.38;4992069;28;45646;-85
2023/03/08 06:48:48;;;;;;;;;1.00;1.00;;;;;10.40;89.13;-13897.31;5012197;28;45592;-85
2023/03/08 06:51:13;;;;;;;;;1.00;1.00;;;;;10.74;88.99;-13786.66;5015811;28;46227;-86
2023/03/08 06:53:39;;;;;;;;;1.00;1.00;;;;;10.82;89.57;-12811.53;5010590;28;45473;-85
2023/03/08 06:56:07;;;;;;;;;1.00;1.00;;;;;10.85;89.75;-12825.03;5005877;28;45786;-86
2023/03/08 06:58:34;;;;;;;;;1.00;1.00;;;;;10.67;89.45;-12804.09;5021540;28;45359;-86
2023/03/08 07:01:00;;;;;;;;;1.00;1.00;;;;;10.95;89.76;-13033.91;5006982;28;46387;-85
2023/03/08 07:03:26;;;;;;;;;1.00;1.00;;;;;10.94;89.99;-12030.97;5011646;28;45352;-85
2023/03/08 07:05:52;;;;;;;;;1.00;1.00;;;;;10.64;89.81;-12671.56;5017871;28;45402;-85
2023/03/08 07:08:17;;;;;;;;;1.33;1.33;;;;;11.09;89.86;-12595.47;5012578;28;45463;-85
2023/03/08 07:10:43;;;;;;;;;0.00;0.00;;;;;10.84;90.12;-12112.41;5017670;28;45376;-85
2023/03/08 07:13:08;;;;;;;;;0.00;0.00;;;;;11.21;90.22;-12602.53;5017515;28;45444;-84
2023/03/08 07:15:33;;;;;;;;;0.00;0.00;;;;;11.27;90.15;-12795.22;5017543;28;45442;-85
2023/03/08 07:17:59;;;;;;;;;1.00;1.00;;;;;11.12;90.21;-12427.47;5029352;28;45472;-84
2023/03/08 07:20:26;;;;;;;;;1.67;1.00;;;;;11.39;90.33;-12646.75;5017366;28;45459;-85
2023/03/08 07:22:52;;;;;;;;;0.00;0.00;;;;;11.45;90.37;-13013.22;5006341;28;45453;-85
2023/03/08 07:25:19;;;;;;;;;0.00;0.00;;;;;11.52;89.95;-13411.19;5017396;28;45386;-85
2023/03/08 07:27:45;;;;;;;;;1.00;1.00;;;;;11.57;90.44;-12851.81;5017345;28;45399;-85
2023/03/08 07:30:13;;;;;;;;;3.00;1.00;;;;;11.52;90.25;-13040.31;5016853;28;45834;-85
2023/03/08 07:32:41;;;;;;;;;0.00;0.00;;;;;11.70;89.83;-13665.66;5017222;28;45432;-85
2023/03/08 07:35:08;;;;;;;;;1.00;1.00;;;;;11.77;90.61;-13747.28;5017097;28;45481;-85
2023/03/08 07:37:33;;;;;;;;;1.00;1.00;;;;;11.47;90.06;-14061.06;5017604;28;45385;-85
2023/03/08 07:39:59;;;;;;;;;0.00;0.00;;;;;11.87;89.88;-14853.88;5016810;28;45794;-85
2023/03/08 07:42:26;;;;;;;;;0.00;0.00;;;;;11.93;90.04;-14440.03;5015559;28;45417;-85
2023/03/08 07:44:51;;;;;;;;;1.00;1.00;;;;;12.00;90.18;-14739.66;5017319;28;45417;-87
2023/03/08 07:47:17;;;;;;;;;2.67;0.00;;;;;12.08;90.07;-14650.38;5015635;28;45486;-86
2023/03/08 07:49:42;;;;;;;;;0.00;0.00;;;;;11.94;89.82;-15283.25;5013647;28;46202;-85
2023/03/08 07:52:07;;;;;;;;;0.67;0.67;;;;;12.30;89.71;-15508.22;5019474;28;45413;-85
2023/03/08 07:54:33;;;;;;;;;0.00;0.00;;;;;12.38;89.75;-16199.97;5016338;28;45537;-86
2023/03/08 07:56:58;;;;;;;;;1.00;1.00;;;;;12.45;89.28;-16572.53;5015851;28;45343;-86
2023/03/08 07:59:24;;;;;;;;;0.00;0.00;;;;;12.54;89.11;-17371.00;5013547;28;45393;-86
2023/03/08 08:01:49;;;;;;;;;1.00;1.00;;;;;12.64;89.17;-17474.66;5016684;28;45355;-85
2023/03/08 08:04:15;;;;;;;;;1.00;1.00;;;;;12.78;88.69;-18570.34;5017050;28;45334;-85
2023/03/08 08:06:41;;;;;;;;;0.00;0.00;;;;;12.76;88.58;-19189.75;5017519;28;45428;-85
2023/03/08 08:09:07;;;;;;;;;0.00;0.00;;;;;12.66;88.11;-19549.84;4998912;28;46300;-85
2023/03/08 08:11:33;;;;;;;;;0.67;0.67;;;;;13.06;87.15;-19560.22;5016913;28;45418;-86
2023/03/08 08:13:59;;;;;;;;;0.00;0.00;;;;;13.09;86.81;-19561.16;5016563;28;45430;-85
2023/03/08 08:16:25;;;;;;;;;0.67;0.67;;;;;13.16;86.80;-19562.75;5017567;28;45446;-86
2023/03/08 08:18:52;;;;;;;;;0.67;0.67;;;;;13.23;86.49;-19564.66;5016628;28;45354;-85
2023/03/08 08:21:17;;;;;;;;;0.00;0.00;;;;;13.04;86.06;-19559.66;5016772;28;45441;-86
2023/03/08 08:23:43;;;;;;;;;0.00;0.00;;;;;13.04;86.53;-19559.66;5016826;28;45518;-86
2023/03/08 08:26:12;;;;;;;;;0.00;0.00;;;;;13.28;85.98;-19566.13;5017582;28;45348;-86
2023/03/08 08:28:39;;;;;;;;;0.67;0.00;;;;;13.22;85.81;-19564.50;5017533;28;46103;-86
2023/03/08 08:31:09;;;;;;;;;1.00;1.00;;;;;13.54;85.91;-19572.72;5017271;28;45524;-86
2023/03/08 08:33:35;;;;;;;;;1.00;0.00;;;;;13.59;85.57;-19574.06;5017176;28;45470;-86
2023/03/08 08:36:06;;;;;;;;;0.67;0.67;;;;;13.62;85.68;-19575.00;5017397;28;45356;-86
2023/03/08 08:38:32;;;;;;;;;0.67;0.00;;;;;13.31;85.91;-19566.81;4999035;28;47249;-86
2023/03/08 08:41:02;;;;;;;;;0.00;0.00;;;;;13.60;85.35;-19574.47;5017128;28;45502;-87
2023/03/08 08:43:28;;;;;;;;;0.67;0.00;;;;;13.59;85.71;-19574.06;5017608;28;45530;-86
2023/03/08 08:45:56;;;;;;;;;0.33;0.33;;;;;13.52;86.04;-19572.44;5017430;28;45446;-85
2023/03/08 08:48:22;;;;;;;;;0.00;0.00;;;;;13.39;86.26;-19568.81;5016889;28;45290;-85
2023/03/08 08:50:48;;;;;;;;;1.00;0.33;;;;;13.22;86.72;-19564.38;5016997;28;45629;-86
2023/03/08 08:53:13;;;;;;;;;0.00;0.00;;;;;13.44;87.81;-19570.31;5015759;28;45719;-86
2023/03/08 08:55:38;;;;;;;;;1.00;1.00;;;;;13.28;88.27;-19566.00;5007708;28;45570;-85
2023/03/08 08:58:04;;;;;;;;;0.67;0.67;;;;;13.23;88.85;-19564.78;5013526;28;45718;-85
2023/03/08 09:00:31;;;;;;;;;1.67;1.67;;;;;13.52;88.50;-19572.31;4994405;28;45630;-85
2023/03/08 09:02:58;;;;;;;;;1.00;1.00;;;;;13.56;89.66;-19189.50;5014852;28;45590;-85
2023/03/08 09:05:24;;;;;;;;;0.33;0.33;;;;;13.56;89.48;-19197.44;4997630;28;45554;-86
2023/03/08 09:07:53;;;;;;;;;0.67;0.67;;;;;13.58;89.16;-19333.03;5015085;28;45382;-86
2023/03/08 09:10:18;;;;;;;;;0.67;0.67;;;;;13.60;89.33;-19442.50;5016793;28;45454;-86
2023/03/08 09:12:44;;;;;;;;;0.00;0.00;;;;;13.65;89.62;-19087.94;5016135;28;45928;-86
2023/03/08 09:15:10;;;;;;;;;0.67;0.33;;;;;13.72;89.48;-19308.16;5016907;28;45401;-86
2023/03/08 09:17:37;;;;;;;;;1.33;0.33;;;;;13.58;89.17;-19548.47;4997744;28;45470;-86
2023/03/08 09:20:05;;;;;;;;;0.67;0.00;;;;;13.47;88.73;-19571.09;5013775;28;45467;-86
2023/03/08 09:22:31;;;;;;;;;1.00;0.67;;;;;13.66;88.73;-19575.94;5013503;28;45475;-86
2023/03/08 09:24:56;;;;;;;;;1.00;1.00;;;;;13.94;88.37;-19583.34;5015897;28;45614;-86
2023/03/08 09:27:22;;;;;;;;;1.00;0.33;;;;;13.78;88.50;-19579.16;5015199;28;46037;-86
2023/03/08 09:29:47;;;;;;;;;1.00;1.00;;;;;13.83;87.87;-19580.38;5014467;28;45360;-86
2023/03/08 09:32:12;;;;;;;;;2.00;0.67;;;;;13.98;88.08;-19584.28;5016636;28;45486;-86
2023/03/08 09:34:38;;;;;;;;;1.00;1.00;;;;;14.05;87.57;-19586.16;5015727;28;45520;-86
2023/03/08 09:37:04;;;;;;;;;5.00;2.00;;;;;13.85;87.99;-19581.06;5009702;28;46136;-86
2023/03/08 09:39:30;;;;;;;;;0.00;0.00;;;;;14.17;87.54;-19589.25;5015939;28;45299;-87
2023/03/08 09:41:57;;;;;;;;;0.00;0.00;;;;;13.97;87.22;-19584.16;5015206;28;45680;-86
2023/03/08 09:45:00;;;;;;;;;27.00;22.00;;;;;14.15;87.58;-19588.84;5000742;28;45615;-86
2023/03/08 09:47:32;;;;;;;;;3.00;0.33;;;;;14.15;87.21;-19588.84;5002847;28;46793;-86
2023/03/08 09:50:11;;;;;;;;;3.00;3.00;;;;;14.18;86.88;-19589.66;5018095;28;45331;-86
2023/03/08 09:52:41;;;;;;;;;4.00;4.00;;;;;14.21;86.83;-19590.31;5019965;28;45360;-86
2023/03/08 09:55:29;;;;;;;;;2.00;1.00;;;;;14.18;87.09;-19589.66;4991901;28;45355;-86
2023/03/08 09:58:16;;;;;;;;;1.00;1.00;;;;;14.32;87.16;-19593.28;5017607;28;45446;-86
2023/03/08 10:00:43;;;;;;;;;1.00;1.00;;;;;14.41;86.86;-19595.69;5015159;28;45340;-86
2023/03/08 10:03:29;;;;;;;;;1.00;1.00;;;;;14.47;86.58;-19597.31;5005586;28;45376;-86
2023/03/08 10:06:30;;;;;;;;;1.00;1.00;;;;;14.38;86.59;-19594.91;5009383;28;45539;-87
2023/03/08 10:09:23;;;;;;;;;1.00;0.00;;;;;14.32;85.91;-19593.28;4953863;28;46696;-86
2023/03/08 10:11:59;;;;;;;;;0.33;0.00;;;;;14.70;85.78;-19603.34;4949979;28;45466;-85
2023/03/08 10:14:30;;;;;;;;;3.00;0.00;;;;;14.82;85.24;-19606.44;4952350;28;45500;-85
2023/03/08 10:17:01;;;;;;;;;1.00;1.00;;;;;14.54;85.06;-19599.06;4945144;28;45519;-86
2023/03/08 10:19:38;;;;;;;;;0.00;0.00;;;;;15.03;84.27;-19611.94;4945370;28;46327;-86
2023/03/08 10:22:13;;;;;;;;;1.00;1.00;;;;;15.41;83.84;-19622.00;4955631;28;45428;-86
2023/03/08 10:24:47;;;;;;;;;1.00;1.00;;;;;16.25;82.61;-19643.88;4942194;28;45466;-85
2023/03/08 10:27:21;;;;;;;;;2.33;0.67;;;;;17.13;79.92;-19666.78;4939150;28;45405;-86
2023/03/08 10:29:55;;;;;;;;;1.00;0.00;;;;;17.96;77.12;-19688.59;4944246;28;45570;-87
2023/03/08 10:32:21;;;;;;;;;1.00;1.00;;;;;18.17;74.99;-19693.94;4951522;28;45547;-85
2023/03/08 10:34:48;;;;;;;;;1.75;0.00;;;;;18.22;73.40;-19695.28;4948853;28;45448;-85
2023/03/08 10:37:14;;;;;;;;;1.00;1.00;;;;;18.22;72.40;-19695.41;4956394;28;45400;-85
2023/03/08 10:39:52;;;;;;;;;0.00;0.00;;;;;18.22;72.05;-19695.41;4950070;28;45547;-85
2023/03/08 10:42:21;;;;;;;;;0.00;0.00;;;;;18.13;70.58;-19693.00;4958239;28;45800;-85
2023/03/08 10:44:52;;;;;;;;;0.50;0.50;;;;;18.28;71.65;-19697.00;4962447;28;45611;-85
2023/03/08 10:47:22;;;;;;;;;1.00;1.00;;;;;18.38;70.38;-19699.56;5000339;28;45343;-85
2023/03/08 10:49:47;;;;;;;;;0.00;0.00;;;;;18.69;70.03;-19707.56;5015371;28;47127;-85
2023/03/08 10:52:27;;;;;;;;;1.00;1.00;;;;;19.46;68.61;-19727.72;5018719;28;45324;-85
2023/03/08 10:55:25;;;;;;;;;0.75;0.00;;;;;19.61;66.58;-19731.59;5018863;28;45350;-85
2023/03/08 10:57:53;;;;;;;;;0.00;0.00;;;;;19.96;63.85;-19740.69;5014624;28;45466;-85
2023/03/08 11:00:18;;;;;;;;;0.00;0.00;;;;;20.20;64.18;-19746.94;5016641;28;45358;-85
2023/03/08 11:02:44;;;;;;;;;0.00;0.00;;;;;19.99;63.06;-19741.63;5021949;28;45462;-85
2023/03/08 11:05:21;;;;;;;;;0.50;0.00;;;;;19.80;62.96;-19736.69;5019186;28;45296;-85
2023/03/08 11:07:52;;;;;;;;;1.00;0.00;;;;;19.55;63.40;-19730.00;5018771;28;45355;-85
2023/03/08 11:10:22;;;;;;;;;0.00;0.00;;;;;19.22;63.30;-19721.31;5017843;28;46166;-85
2023/03/08 11:12:59;;;;;;;;;0.75;0.00;;;;;19.23;64.75;-19721.59;5018573;28;45289;-85
2023/03/08 11:15:25;;;;;;;;;0.00;0.00;;;;;18.97;64.09;-19714.91;5017655;28;45410;-85
2023/03/08 11:18:21;;;;;;;;;0.00;0.00;;;;;19.02;64.76;-19716.13;5018720;28;45415;-85
2023/03/08 11:20:55;;;;;;;;;0.25;0.00;;;;;18.77;64.56;-19709.84;4998486;28;46004;-85
2023/03/08 11:23:23;;;;;;;;;0.00;0.00;;;;;18.88;65.55;-19712.50;4998414;28;45418;-85
2023/03/08 11:26:38;;;;;;;;;0.00;0.00;;;;;18.63;64.98;-19706.09;4981270;28;45425;-85
2023/03/08 11:29:22;;;;;;;;;0.00;0.00;;;;;19.05;65.47;-19717.06;4973314;28;45566;-85
2023/03/08 11:32:32;;;;;;;;;0.00;0.00;;;;;19.23;65.16;-19721.72;4968183;28;46543;-84
2023/03/08 11:35:16;;;;;;;;;1.25;0.00;;;;;19.54;63.80;-19729.88;4957108;28;45382;-85
2023/03/08 11:37:55;;;;;;;;;0.00;0.00;;;;;19.38;63.76;-19725.59;4956925;28;45435;-85
2023/03/08 11:40:27;;;;;;;;;1.00;0.00;;;;;19.45;62.40;-19727.47;4960880;28;45835;-85
2023/03/08 11:43:35;;;;;;;;;3.67;1.00;;;;;19.22;62.72;-19721.31;4956795;28;46687;-85
2023/03/08 11:46:25;;;;;;;;;0.75;0.75;;;;;18.91;62.72;-19713.44;4916513;28;45502;-85
2023/03/08 11:49:03;;;;;;;;;0.00;0.00;;;;;18.69;63.77;-19707.69;4934723;28;45434;-85
2023/03/08 11:51:35;;;;;;;;;0.00;0.00;;;;;18.19;63.49;-19694.47;4914518;28;45557;-85
2023/03/08 11:54:04;;;;;;;;;1.00;1.00;;;;;18.37;64.32;-19699.28;4908232;28;45415;-84
2023/03/08 11:56:38;;;;;;;;;2.00;1.00;;;;;18.48;65.00;-19702.09;4918118;28;45492;-85
2023/03/08 11:59:16;;;;;;;;;2.00;0.33;;;;;18.52;65.32;-19703.28;4916808;28;45506;-85
2023/03/08 12:01:57;;;;;;;;;0.00;0.00;;;;;18.77;64.86;-19709.72;4918282;28;45442;-85
2023/03/08 12:04:51;;;;;;;;;0.00;0.00;;;;;19.19;65.38;-19720.66;4917656;28;46219;-85
2023/03/08 12:07:26;;;;;;;;;0.00;0.00;;;;;19.29;64.73;-19723.19;4915197;28;45578;-85
2023/03/08 12:09:59;;;;;;;;;0.00;0.00;;;;;19.18;64.23;-19720.38;4917884;28;45559;-85
2023/03/08 12:12:39;;;;;;;;;0.75;0.25;;;;;18.71;64.68;-19708.22;4918617;28;45560;-85
2023/03/08 12:15:36;;;;;;;;;0.00;0.00;;;;;18.75;65.83;-19709.16;4916512;28;45565;-85
2023/03/08 12:18:28;;;;;;;;;0.00;0.00;;;;;18.56;67.29;-19704.22;4916460;28;45476;-84
2023/03/08 12:21:27;;;;;;;;;0.00;0.00;;;;;19.07;67.10;-19717.59;4916588;28;45619;-85
2023/03/08 12:24:20;;;;;;;;;0.00;0.00;;;;;19.28;65.61;-19722.94;4982262;28;45412;-85
2023/03/08 12:26:51;;;;;;;;;0.00;0.00;;;;;19.21;65.22;-19721.06;4997442;28;45901;-85
2023/03/08 12:29:42;;;;;;;;;0.00;0.00;;;;;19.18;65.00;-19720.38;4980009;28;45401;-85
2023/03/08 12:32:10;;;;;;;;;0.00;0.00;;;;;18.94;65.42;-19714.25;4998215;28;45362;-85
2023/03/08 12:34:41;;;;;;;;;0.00;0.00;;;;;18.76;65.65;-19709.56;4997803;28;45385;-85
2023/03/08 12:37:24;;;;;;;;;1.00;0.00;;;;;18.31;66.18;-19697.81;5006483;28;45497;-85
2023/03/08 12:40:00;;;;;;;;;0.00;0.00;;;;;18.60;66.13;-19705.16;5016932;28;45442;-85
2023/03/08 12:42:37;;;;;;;;;0.00;0.00;;;;;18.57;66.47;-19704.50;5017417;28;45442;-85
2023/03/08 12:45:18;;;;;;;;;0.00;0.00;;;;;18.74;65.38;-19709.03;4998257;28;45667;-85
2023/03/08 12:48:03;;;;;;;;;1.00;0.00;;;;;18.67;64.56;-19707.16;5016923;28;45580;-85
2023/03/08 12:50:34;;;;;;;;;0.00;0.00;;;;;18.55;64.42;-19703.97;5015768;28;45427;-85
2023/03/08 12:52:59;;;;;;;;;1.50;0.00;;;;;18.50;64.61;-19702.63;5004537;28;45373;-85
2023/03/08 12:55:30;;;;;;;;;0.00;0.00;;;;;18.24;64.14;-19695.81;4997939;28;45907;-85
2023/03/08 12:58:01;;;;;;;;;1.00;0.00;;;;;18.20;64.50;-19694.75;4997923;28;45572;-85
2023/03/08 13:00:35;;;;;;;;;1.75;0.00;;;;;18.16;65.11;-19693.66;5016702;28;45510;-84
2023/03/08 13:03:11;;;;;;;;;0.00;0.00;;;;;18.47;65.17;-19701.97;5016206;28;45384;-85
2023/03/08 13:05:38;;;;;;;;;0.00;0.00;;;;;18.55;64.07;-19704.09;5012708;28;45449;-85
2023/03/08 13:08:22;;;;;;;;;0.00;0.00;;;;;18.61;63.46;-19705.56;5016483;28;45463;-85
2023/03/08 13:11:07;;;;;;;;;1.50;0.00;;;;;18.53;63.26;-19703.41;5013183;28;45515;-85
2023/03/08 13:13:51;;;;;;;;;0.00;0.00;;;;;18.73;63.96;-19708.63;5016399;28;45518;-85
2023/03/08 13:16:33;;;;;;;;;0.25;0.25;;;;;18.71;63.35;-19708.22;5022210;28;45323;-85
2023/03/08 13:19:15;;;;;;;;;0.00;0.00;;;;;18.47;63.41;-19701.81;5014972;28;45398;-85
2023/03/08 13:22:22;;;;;;;;;1.75;1.75;;;;;18.49;63.80;-19702.34;5015991;28;45417;-85
2023/03/08 13:25:20;;;;;;;;;1.00;1.00;;;;;18.32;63.93;-19697.94;5011056;28;45356;-85
2023/03/08 13:28:03;;;;;;;;;2.00;0.00;;;;;17.88;65.48;-19686.44;4953137;28;45542;-85
2023/03/08 13:30:36;;;;;;;;;0.00;0.00;;;;;17.99;66.69;-19689.38;4955579;28;45495;-85
2023/03/08 13:33:12;;;;;;;;;0.00;0.00;;;;;17.93;66.76;-19687.78;4936504;28;46648;-85
2023/03/08 13:35:37;;;;;;;;;2.50;0.00;;;;;17.85;66.97;-19685.66;4937873;28;45444;-85
2023/03/08 13:38:03;;;;;;;;;0.00;0.00;;;;;17.47;67.89;-19675.75;4942126;28;45737;-85
2023/03/08 13:40:30;;;;;;;;;0.00;0.00;;;;;17.46;69.09;-19675.47;4950697;28;46117;-85
2023/03/08 13:43:04;;;;;;;;;0.50;0.00;;;;;17.50;68.79;-19676.69;4949202;28;46579;-84
2023/03/08 13:45:30;;;;;;;;;0.00;0.00;;;;;17.63;69.46;-19680.03;4950445;28;45873;-85
2023/03/08 13:47:59;;;;;;;;;0.00;0.00;;;;;17.38;70.12;-19673.47;4948367;28;45518;-84
2023/03/08 13:50:33;;;;;;;;;0.00;0.00;;;;;17.53;69.30;-19677.34;4949658;28;47622;-84
2023/03/08 13:53:08;;;;;;;;;0.00;0.00;;;;;17.31;69.26;-19671.59;4947992;28;45489;-85
2023/03/08 13:55:38;;;;;;;;;0.00;0.00;;;;;17.26;69.75;-19670.38;4949698;28;45508;-85
2023/03/08 13:58:04;;;;;;;;;2.00;0.00;;;;;17.18;70.59;-19668.25;4932343;28;45546;-84
2023/03/08 14:00:34;;;;;;;;;1.00;0.00;;;;;17.03;70.93;-19664.38;4919822;28;45903;-84
2023/03/08 14:03:02;;;;;;;;;1.25;0.00;;;;;17.04;72.69;-19664.50;4977152;28;45451;-85
2023/03/08 14:05:31;;;;;;;;;0.00;0.00;;;;;17.15;73.58;-19667.31;5015217;28;45584;-84
2023/03/08 14:08:06;;;;;;;;;0.00;0.00;;;;;17.10;74.27;-19666.09;5006466;28;45565;-85
2023/03/08 14:10:43;;;;;;;;;0.00;0.00;;;;;17.04;75.20;-19664.63;5014331;28;46222;-85
2023/03/08 14:13:23;;;;;;;;;0.00;0.00;;;;;16.99;74.36;-19663.28;5014261;28;45414;-85
2023/03/08 14:15:51;;;;;;;;;0.00;0.00;;;;;16.89;74.26;-19660.63;5007996;28;45534;-85
2023/03/08 14:18:38;;;;;;;;;0.00;0.00;;;;;16.84;74.26;-19659.28;4994387;28;45648;-86
2023/03/08 14:21:12;;;;;;;;;0.00;0.00;;;;;16.78;74.84;-19657.66;5009491;28;47379;-86
2023/03/08 14:23:48;;;;;;;;;0.00;0.00;;;;;16.64;74.91;-19654.03;4997177;28;45391;-86
2023/03/08 14:26:35;;;;;;;;;0.00;0.00;;;;;16.59;75.14;-19652.84;5011497;28;45730;-88
2023/03/08 14:29:17;;;;;;;;;0.00;0.00;;;;;16.35;75.58;-19646.53;5006788;28;45604;-87
2023/03/08 14:32:09;;;;;;;;;0.67;0.67;;;;;16.45;76.25;-19649.09;5016041;28;46144;-84
2023/03/08 14:34:41;;;;;;;;;1.67;0.00;;;;;16.41;77.12;-19648.03;5013385;28;45496;-85
2023/03/08 14:37:23;;;;;;;;;0.00;0.00;;;;;16.33;76.91;-19645.88;5011889;28;45375;-86
2023/03/08 14:39:51;;;;;;;;;0.00;0.00;;;;;16.17;78.15;-19641.72;5023841;28;45489;-83
2023/03/08 14:42:26;;;;;;;;;0.00;0.00;;;;;15.79;79.56;-19631.94;5007061;28;46239;-85
2023/03/08 14:45:00;;;;;;;;;1.00;1.00;;;;;15.51;80.24;-19624.44;5016601;28;45393;-85
2023/03/08 14:47:26;;;;;;;;;2.67;0.00;;;;;15.90;80.47;-19634.75;5017326;28;46299;-85
2023/03/08 14:50:07;;;;;;;;;0.00;0.00;;;;;15.80;81.09;-19632.06;4996507;28;45486;-85
2023/03/08 14:52:43;;;;;;;;;0.00;0.00;;;;;15.72;82.11;-19629.94;5010530;28;45426;-84
2023/03/08 14:55:37;;;;;;;;;0.25;0.00;;;;;15.66;83.12;-19628.31;5018413;28;45444;-86
2023/03/08 14:58:10;;;;;;;;;0.33;0.00;;;;;15.43;83.53;-19622.28;4996723;28;45594;-85
2023/03/08 15:00:36;;;;;;;;;1.00;1.00;;;;;15.56;84.33;-19625.75;5008302;28;45835;-86
2023/03/08 15:03:02;;;;;;;;;1.00;0.00;;;;;15.37;83.95;-19620.94;5014321;28;46420;-86
2023/03/08 15:05:28;;;;;;;;;0.00;0.00;;;;;15.33;84.29;-19619.88;4992954;28;45767;-86
2023/03/08 15:07:55;;;;;;;;;0.33;0.00;;;;;15.38;84.59;-19621.06;5013276;28;45525;-87
2023/03/08 15:10:30;;;;;;;;;0.00;0.00;;;;;15.36;84.59;-19620.53;5016483;28;45422;-87
2023/03/08 15:12:56;;;;;;;;;7.67;7.00;;;;;15.15;84.58;-19615.16;5014848;28;46725;-87
2023/03/08 15:15:22;;;;;;;;;0.00;0.00;;;;;14.95;84.77;-19609.81;5018900;28;45418;-86
2023/03/08 15:17:48;;;;;;;;;1.00;0.00;;;;;15.39;85.35;-19621.47;4998007;28;45460;-86
2023/03/08 15:20:14;;;;;;;;;0.67;0.67;;;;;15.39;85.97;-19621.47;5009507;28;45570;-86
2023/03/08 15:22:47;;;;;;;;;0.33;0.00;;;;;15.10;85.58;-19613.81;5015841;28;45389;-85
2023/03/08 15:25:28;;;;;;;;;0.00;0.00;;;;;15.52;85.17;-19624.81;5017940;28;45744;-87
2023/03/08 15:27:55;;;;;;;;;2.00;2.00;;;;;15.34;85.41;-19620.00;5016853;28;45527;-87
2023/03/08 15:30:24;;;;;;;;;0.33;0.00;;;;;15.32;85.11;-19619.59;5006763;28;45598;-86
2023/03/08 15:32:49;;;;;;;;;0.00;0.00;;;;;15.50;85.55;-19624.16;5012426;28;45518;-86
2023/03/08 15:35:15;;;;;;;;;0.00;0.00;;;;;15.66;84.94;-19628.44;4998106;28;45607;-86
2023/03/08 15:37:41;;;;;;;;;2.00;0.00;;;;;15.37;85.20;-19620.81;5015299;28;45510;-84
2023/03/08 15:40:20;;;;;;;;;0.33;0.00;;;;;15.41;84.03;-19622.00;5001284;28;45573;-87
2023/03/08 15:42:45;;;;;;;;;2.00;1.00;;;;;14.95;83.57;-19609.94;4996409;28;48559;-87
2023/03/08 15:45:11;;;;;;;;;1.00;1.00;;;;;15.67;84.19;-19628.59;5008480;28;45617;-86
2023/03/08 15:47:37;;;;;;;;;0.00;0.00;;;;;15.24;83.40;-19617.44;5014803;28;45609;-86
2023/03/08 15:50:05;;;;;;;;;0.00;0.00;;;;;15.41;82.60;-19622.00;4997398;28;45745;-85
2023/03/08 15:52:31;;;;;;;;;0.00;0.00;;;;;15.65;81.87;-19628.19;5010965;28;45485;-85
2023/03/08 15:54:57;;;;;;;;;0.00;0.00;;;;;15.38;81.38;-19621.22;5016994;28;45376;-87
2023/03/08 15:57:22;;;;;;;;;0.00;0.00;;;;;14.91;80.82;-19608.88;5017451;28;45332;-86
2023/03/08 15:59:49;;;;;;;;;0.00;0.00;;;;;15.16;81.43;-19615.31;5016323;28;45438;-87
2023/03/08 16:02:16;;;;;;;;;0.00;0.00;;;;;15.62;80.60;-19627.38;5013823;28;45849;-87
2023/03/08 16:04:46;;;;;;;;;0.50;0.50;;;;;14.70;81.26;-19603.34;5015145;28;45367;-87
2023/03/08 16:07:13;;;;;;;;;0.00;0.00;;;;;15.50;80.92;-19624.28;5017503;28;45408;-87
2023/03/08 16:09:38;;;;;;;;;0.00;0.00;;;;;15.28;81.12;-19618.53;5015498;28;45629;-85
2023/03/08 16:12:04;;;;;;;;;0.00;0.00;;;;;15.24;81.01;-19617.31;5006112;28;45543;-87
2023/03/08 16:14:29;;;;;;;;;0.00;0.00;;;;;15.50;81.35;-19624.28;5011898;28;45435;-87
2023/03/08 16:16:55;;;;;;;;;0.00;0.00;;;;;15.50;81.83;-19624.28;5008882;28;45546;-86
2023/03/08 16:19:20;;;;;;;;;0.00;0.00;;;;;15.50;81.80;-19624.16;5012696;28;46827;-86
2023/03/08 16:21:46;;;;;;;;;0.00;0.00;;;;;15.38;82.53;-19621.06;5015915;28;46103;-87
2023/03/08 16:24:11;;;;;;;;;0.00;0.00;;;;;15.47;82.30;-19623.34;5016679;28;45329;-86
2023/03/08 16:26:37;;;;;;;;;1.50;0.50;;;;;15.45;82.56;-19622.81;4997523;28;45494;-86
2023/03/08 16:29:03;;;;;;;;;1.67;1.67;;;;;15.42;82.99;-19622.16;5008697;28;45524;-86
2023/03/08 16:31:31;;;;;;;;;3.00;3.00;;;;;15.40;84.30;-19621.75;5015662;28;45506;-86
2023/03/08 16:33:57;;;;;;;;;1.00;1.00;;;;;14.91;85.85;-19608.72;5016237;28;45382;-86
2023/03/08 16:36:22;;;;;;;;;0.00;0.00;;;;;14.97;86.65;-19610.34;5017142;28;45426;-86
2023/03/08 16:38:48;;;;;;;;;1.00;1.00;;;;;14.76;87.66;-19604.97;5015452;28;45471;-86
2023/03/08 16:41:13;;;;;;;;;0.00;0.00;;;;;14.81;88.54;-19606.03;5013766;28;45495;-86
2023/03/08 16:43:39;;;;;;;;;1.50;0.50;;;;;14.43;89.08;-19596.09;4994609;28;45839;-86
2023/03/08 16:46:05;;;;;;;;;0.00;0.00;;;;;14.60;89.20;-19600.66;5014411;28;45517;-86
2023/03/08 16:48:30;;;;;;;;;0.33;0.33;;;;;14.33;89.48;-19593.56;4988703;28;45637;-86
2023/03/08 16:50:58;;;;;;;;;2.00;0.00;;;;;14.26;89.54;-19591.81;5012944;28;45980;-86
2023/03/08 16:53:25;;;;;;;;;0.67;0.67;;;;;14.51;90.13;-19598.38;5015163;28;45519;-85
2023/03/08 16:55:51;;;;;;;;;0.67;0.67;;;;;14.18;90.73;-19460.19;5009478;28;45511;-86
2023/03/08 16:58:18;;;;;;;;;1.00;1.00;;;;;14.26;91.05;-18846.00;5015031;28;45399;-86
2023/03/08 17:00:44;;;;;;;;;1.00;1.00;;;;;14.55;90.89;-19303.41;5015343;28;46045;-86
2023/03/08 17:03:10;;;;;;;;;2.00;2.00;;;;;14.52;90.85;-19300.16;5012563;28;45474;-87
2023/03/08 17:05:40;;;;;;;;;3.00;1.00;;;;;14.23;90.78;-19188.50;5013947;28;45459;-87
2023/03/08 17:08:05;;;;;;;;;7.33;7.33;;;;;14.52;91.04;-19229.78;5011752;28;45494;-86
2023/03/08 17:10:36;;;;;;;;;3.00;3.00;;;;;14.42;90.37;-19552.41;5015639;28;45537;-96
2023/03/08 17:13:01;;;;;;;;;1.00;1.00;;;;;14.29;90.21;-19592.59;5024795;22;45544;-85
2023/03/08 17:15:27;;;;;;;;;0.67;0.67;;;;;14.29;89.57;-19592.47;4959898;28;45428;-86
2023/03/08 17:17:52;;;;;;;;;0.00;0.00;;;;;14.17;90.19;-19589.25;4973869;28;45535;-89
2023/03/08 17:20:18;;;;;;;;;0.00;0.00;;;;;13.70;89.28;-19577.16;4959957;28;47038;-88
2023/03/08 17:22:43;;;;;;;;;0.67;0.00;;;;;14.09;88.60;-19587.22;4943981;28;45502;-93
2023/03/08 17:25:15;;;;;;;;;2.00;0.00;;;;;13.69;88.92;-19576.75;4954210;28;45294;-90
2023/03/08 17:27:40;;;;;;;;;1.00;1.00;;;;;13.93;89.18;-19583.06;4952651;28;45463;-92
2023/03/08 17:30:15;;;;;;;;;2.67;1.67;;;;;13.40;89.13;-19569.22;4951675;28;45549;-90
2023/03/08 17:32:41;;;;;;;;;0.67;0.67;;;;;13.61;88.95;-19574.75;4954977;28;45412;-92
2023/03/08 17:35:15;;;;;;;;;1.00;1.00;;;;;13.71;88.31;-19577.28;4957474;28;45536;-89
2023/03/08 17:37:42;;;;;;;;;2.00;1.00;;;;;13.17;87.68;-19563.03;4954913;28;45542;-89
2023/03/08 17:40:10;;;;;;;;;0.67;0.67;;;;;14.28;88.16;-19592.34;4950720;28;48332;-91
2023/03/08 17:42:36;;;;;;;;;2.00;2.00;;;;;14.29;87.62;-19592.47;4952866;28;45516;-90
2023/03/08 17:45:05;;;;;;;;;2.00;2.00;;;;;14.00;88.05;-19584.81;4957314;28;45435;-91